Flight Track Log - Related Links

Times and Time Zones

All times are in EDT time to prevent confusion due to time zone crossing. See the EJA996 flight status page for this flight to view local times or setup timezone preferences in your user account.

Time Position Orientation Groundspeed Altitude Reporting Facility
EDT Latitude Longitude Course Direction KTS MPH feet Rate Location/Type
Sun 04:07:53 PM 33.9000 -84.3000 345° North 172 198 2,400  Level Atlanta TRACON
Sun 04:08:53 PM 33.9500 -84.3167 345° North 199 229 4,800 1,800 Climbing Atlanta TRACON
Sun 04:09:53 PM 33.9333 -84.3833 253° West 242 278 6,000 600 Climbing Atlanta TRACON
Sun 04:10:53 PM 33.8667 -84.3833 180° South 240 276 6,000  Level Atlanta TRACON
Sun 04:11:53 PM 33.8000 -84.3833 180° South 234 269 6,000  Level Atlanta TRACON
Sun 04:12:53 PM 33.7333 -84.3833 180° South 276 318 6,000  Level Atlanta TRACON
Sun 04:13:53 PM 33.6500 -84.3833 180° South 289 333 6,000  Level Atlanta TRACON
Sun 04:14:53 PM 33.5667 -84.3833 180° South 292 336 6,000  Level Atlanta TRACON
Sun 04:15:53 PM 33.4833 -84.3833 180° South 282 325 6,000 2,132 Level Atlanta TRACON
Sun 04:18:10 PM 33.3411 -84.2553 143° Southeast 321 369 13,000 2,802 Climbing Atlanta Center
Sun 04:19:10 PM 33.2661 -84.1731 137° Southeast 351 404 15,200 2,150 Climbing Atlanta Center
Sun 04:20:10 PM 33.1700 -84.0858 143° Southeast 382 440 17,300 2,200 Climbing Atlanta Center
Sun 04:21:10 PM 33.0761 -84.0017 143° Southeast 411 473 19,600 2,250 Climbing Atlanta Center
Sun 04:22:10 PM 32.9781 -83.9150 143° Southeast 435 501 21,800 1,950 Climbing Atlanta Center
Sun 04:23:10 PM 32.8756 -83.8186 142° Southeast 450 518 23,500 1,650 Climbing Atlanta Center
Sun 04:24:10 PM 32.7669 -83.7228 143° Southeast 472 543 25,100 1,250 Climbing Atlanta Center
Sun 04:25:10 PM 32.6581 -83.6219 142° Southeast 485 558 26,000 450 Climbing Atlanta Center
Sun 04:26:10 PM 32.5386 -83.5067 141° Southeast 521 600 26,000  Level Atlanta Center
Sun 04:27:10 PM 32.4169 -83.3942 142° Southeast 549 632 26,000  Level Atlanta Center
Sun 04:28:10 PM 32.2953 -83.2794 141° Southeast 556 640 26,000  Level Atlanta Center
Sun 04:29:10 PM 32.1736 -83.1678 142° Southeast 561 646 26,000 -300 Level Atlanta Center
Sun 04:30:10 PM 32.0536 -83.0586 142° Southeast 561 646 25,400 -600 Descending Atlanta Center
Sun 04:30:40 PM 32.0078 -83.0128 140° Southeast 554 638 25,100 -800 Descending Jacksonville Center
Sun 04:31:40 PM 31.8867 -82.9025 142° Southeast 538 619 24,200 -950 Descending Jacksonville Center
Sun 04:32:40 PM 31.7761 -82.8022 142° Southeast 517 595 23,200 -600 Descending Jacksonville Center
Sun 04:33:40 PM 31.6694 -82.7022 141° Southeast 502 578 23,000 -100 Descending Jacksonville Center
Sun 04:34:40 PM 31.5608 -82.6047 143° Southeast 497 572 23,000  Level Jacksonville Center
Sun 04:35:40 PM 31.4519 -82.5028 141° Southeast 497 572 23,000  Level Jacksonville Center
Sun 04:36:40 PM 31.3408 -82.4086 144° Southeast 497 572 23,000  Level Jacksonville Center
Sun 04:37:40 PM 31.2319 -82.3069 141° Southeast 497 572 23,000  Level Jacksonville Center
Sun 04:38:40 PM 31.1186 -82.2083 143° Southeast 508 585 23,000  Level Jacksonville Center
Sun 04:39:40 PM 31.0033 -82.1047 142° Southeast 513 590 23,000  Level Jacksonville Center
Sun 04:40:06 PM 30.9569 -82.0617 141° Southeast 511 588 23,000  Level Jacksonville Center
Sun 04:40:40 PM 30.8919 -82.0042 143° Southeast 513 590 23,000 -419 Level Jacksonville Center
Sun 04:41:32 PM 30.7931 -81.9131 142° Southeast 513 590 22,400 -1,179 Descending Jacksonville Center
Sun 04:42:32 PM 30.6794 -81.8128 143° Southeast 501 577 20,800 -1,969 Descending Jacksonville Center
Sun 04:43:40 PM 30.5681 -81.7153 143° Southeast 492 566 18,200 -2,250 Descending Jacksonville Center
Sun 04:44:40 PM 30.4669 -81.6250 142° Southeast 431 496 16,000 -2,037 Descending Jacksonville Center
Sun 04:45:29 PM 30.3975 -81.5631 142° Southeast 425 489 14,500 -2,236 Descending Jacksonville Center
Sun 04:46:30 PM 30.2964 -81.4900 148° Southeast 375 432 11,900 -2,164 Descending Jacksonville Center
Sun 04:47:31 PM 30.2083 -81.4506 159° South 330 380 10,100 -1,603 Descending Jacksonville Center
Sun 04:48:26 PM 30.1553 -81.3792 131° Southeast 311 358 8,800 -1,628 Descending Jacksonville Center
Sun 04:49:40 PM 30.0978 -81.2961 129° Southeast 310 357 6,600 -2,410 Descending Jacksonville Center
Sun 04:50:28 PM 30.0531 -81.2297 128° Southeast 279 321 3,900 -1,982 Descending Jacksonville Center
Sun 04:51:29 PM 29.9964 -81.1897 149° Southeast 211 243 3,000 -443 Descending Jacksonville Center
Sun 04:52:30 PM 29.9483 -81.1931 183° South 176 203 3,000  Level Jacksonville Center
Sun 04:53:31 PM 29.9067 -81.1961 184° South 179 206 3,000 -375 Level Jacksonville Center
Sun 04:54:38 PM 29.9011 -81.2536 264° West 166 191 2,200 -984 Descending Jacksonville Center
Sun 04:55:39 PM 29.9267 -81.2942 306° West 139 160 900 -1,279 Descending Jacksonville Center

Login

Don't have an account? Register now (free) for customized features, flight alerts, and more!